sensor_id;sensor_type;location;lat;lon;timestamp;P1;durP1;ratioP1;P2;durP2;ratioP2
53799;SDS011;39708;53.210;6.948;2022-12-18T00:01:25;5.03;;;4.50;;
53799;SDS011;39708;53.210;6.948;2022-12-18T00:03:59;7.25;;;5.80;;
53799;SDS011;39708;53.210;6.948;2022-12-18T00:06:27;5.25;;;1.98;;
53799;SDS011;39708;53.210;6.948;2022-12-18T00:08:54;6.43;;;3.65;;
53799;SDS011;39708;53.210;6.948;2022-12-18T00:11:22;3.60;;;3.40;;
53799;SDS011;39708;53.210;6.948;2022-12-18T00:13:50;7.28;;;3.83;;
53799;SDS011;39708;53.210;6.948;2022-12-18T00:16:17;4.93;;;4.53;;
53799;SDS011;39708;53.210;6.948;2022-12-18T00:18:47;4.70;;;2.35;;
53799;SDS011;39708;53.210;6.948;2022-12-18T00:21:15;6.70;;;3.20;;
53799;SDS011;39708;53.210;6.948;2022-12-18T00:23:42;4.53;;;4.15;;
53799;SDS011;39708;53.210;6.948;2022-12-18T00:26:16;4.32;;;3.72;;
53799;SDS011;39708;53.210;6.948;2022-12-18T00:28:43;4.20;;;3.22;;
53799;SDS011;39708;53.210;6.948;2022-12-18T00:31:11;8.32;;;4.28;;
53799;SDS011;39708;53.210;6.948;2022-12-18T00:33:38;5.97;;;1.70;;
53799;SDS011;39708;53.210;6.948;2022-12-18T00:36:08;11.63;;;2.25;;
53799;SDS011;39708;53.210;6.948;2022-12-18T00:38:38;7.82;;;4.32;;
53799;SDS011;39708;53.210;6.948;2022-12-18T00:41:05;8.90;;;3.83;;
53799;SDS011;39708;53.210;6.948;2022-12-18T00:43:35;3.28;;;3.00;;
53799;SDS011;39708;53.210;6.948;2022-12-18T00:46:01;1.98;;;0.88;;
53799;SDS011;39708;53.210;6.948;2022-12-18T00:48:27;5.60;;;4.50;;
53799;SDS011;39708;53.210;6.948;2022-12-18T00:50:53;8.93;;;4.90;;
53799;SDS011;39708;53.210;6.948;2022-12-18T00:53:19;4.07;;;1.75;;
53799;SDS011;39708;53.210;6.948;2022-12-18T00:55:45;3.13;;;1.95;;
53799;SDS011;39708;53.210;6.948;2022-12-18T00:58:12;4.82;;;3.90;;
53799;SDS011;39708;53.210;6.948;2022-12-18T01:00:39;3.65;;;2.80;;
53799;SDS011;39708;53.210;6.948;2022-12-18T01:03:04;4.43;;;2.33;;
53799;SDS011;39708;53.210;6.948;2022-12-18T01:05:31;6.32;;;4.75;;
53799;SDS011;39708;53.210;6.948;2022-12-18T01:07:57;4.45;;;4.07;;
53799;SDS011;39708;53.210;6.948;2022-12-18T01:10:23;5.80;;;2.58;;
53799;SDS011;39708;53.210;6.948;2022-12-18T01:12:49;3.67;;;3.15;;
53799;SDS011;39708;53.210;6.948;2022-12-18T01:15:16;17.63;;;4.80;;
53799;SDS011;39708;53.210;6.948;2022-12-18T01:17:42;3.47;;;2.13;;
53799;SDS011;39708;53.210;6.948;2022-12-18T01:20:08;4.22;;;2.72;;
53799;SDS011;39708;53.210;6.948;2022-12-18T01:22:35;4.57;;;3.45;;
53799;SDS011;39708;53.210;6.948;2022-12-18T01:25:01;3.17;;;2.05;;
53799;SDS011;39708;53.210;6.948;2022-12-18T01:27:29;9.23;;;5.63;;
53799;SDS011;39708;53.210;6.948;2022-12-18T01:29:55;22.40;;;3.55;;
53799;SDS011;39708;53.210;6.948;2022-12-18T01:32:21;27.67;;;5.97;;
53799;SDS011;39708;53.210;6.948;2022-12-18T01:34:47;5.20;;;4.75;;
53799;SDS011;39708;53.210;6.948;2022-12-18T01:37:12;2.17;;;2.08;;
53799;SDS011;39708;53.210;6.948;2022-12-18T01:39:38;5.25;;;2.45;;
53799;SDS011;39708;53.210;6.948;2022-12-18T01:42:05;5.85;;;4.80;;
53799;SDS011;39708;53.210;6.948;2022-12-18T01:50:06;3.72;;;2.90;;
53799;SDS011;39708;53.210;6.948;2022-12-18T01:52:42;4.40;;;3.97;;
53799;SDS011;39708;53.210;6.948;2022-12-18T01:55:11;11.43;;;3.53;;
53799;SDS011;39708;53.210;6.948;2022-12-18T01:57:38;3.42;;;2.25;;
53799;SDS011;39708;53.210;6.948;2022-12-18T02:00:09;6.50;;;4.78;;
53799;SDS011;39708;53.210;6.948;2022-12-18T02:02:37;4.65;;;2.63;;
53799;SDS011;39708;53.210;6.948;2022-12-18T02:05:03;3.60;;;2.83;;
53799;SDS011;39708;53.210;6.948;2022-12-18T02:10:20;8.38;;;4.38;;
53799;SDS011;39708;53.210;6.948;2022-12-18T02:18:26;5.07;;;4.63;;
53799;SDS011;39708;53.210;6.948;2022-12-18T02:23:51;3.95;;;3.65;;
53799;SDS011;39708;53.210;6.948;2022-12-18T02:26:34;3.03;;;2.80;;
53799;SDS011;39708;53.210;6.948;2022-12-18T02:29:07;4.13;;;3.20;;
53799;SDS011;39708;53.210;6.948;2022-12-18T02:31:39;6.00;;;5.32;;
53799;SDS011;39708;53.210;6.948;2022-12-18T02:34:12;4.82;;;3.65;;
53799;SDS011;39708;53.210;6.948;2022-12-18T02:36:39;4.03;;;3.60;;
53799;SDS011;39708;53.210;6.948;2022-12-18T02:39:07;3.22;;;3.03;;
53799;SDS011;39708;53.210;6.948;2022-12-18T02:41:35;14.30;;;6.82;;
53799;SDS011;39708;53.210;6.948;2022-12-18T02:44:10;2.25;;;2.15;;
53799;SDS011;39708;53.210;6.948;2022-12-18T02:46:39;7.50;;;4.82;;
53799;SDS011;39708;53.210;6.948;2022-12-18T03:00:22;7.95;;;5.53;;
53799;SDS011;39708;53.210;6.948;2022-12-18T03:02:55;17.73;;;6.75;;
53799;SDS011;39708;53.210;6.948;2022-12-18T03:08:00;4.53;;;3.47;;
53799;SDS011;39708;53.210;6.948;2022-12-18T03:10:34;12.13;;;5.82;;
53799;SDS011;39708;53.210;6.948;2022-12-18T03:13:09;3.40;;;3.15;;
53799;SDS011;39708;53.210;6.948;2022-12-18T03:15:49;6.00;;;4.53;;
53799;SDS011;39708;53.210;6.948;2022-12-18T03:18:33;7.90;;;4.60;;
53799;SDS011;39708;53.210;6.948;2022-12-18T03:21:03;16.23;;;5.65;;
53799;SDS011;39708;53.210;6.948;2022-12-18T03:23:35;7.70;;;5.78;;
53799;SDS011;39708;53.210;6.948;2022-12-18T03:26:06;4.78;;;4.43;;
53799;SDS011;39708;53.210;6.948;2022-12-18T03:28:37;4.72;;;4.30;;
53799;SDS011;39708;53.210;6.948;2022-12-18T03:31:07;9.70;;;6.40;;
53799;SDS011;39708;53.210;6.948;2022-12-18T03:33:41;14.70;;;5.95;;
53799;SDS011;39708;53.210;6.948;2022-12-18T03:36:15;11.68;;;5.82;;
53799;SDS011;39708;53.210;6.948;2022-12-18T03:38:41;9.77;;;4.90;;
53799;SDS011;39708;53.210;6.948;2022-12-18T03:46:33;8.90;;;5.43;;
53799;SDS011;39708;53.210;6.948;2022-12-18T03:49:10;10.63;;;3.45;;
53799;SDS011;39708;53.210;6.948;2022-12-18T03:52:02;9.80;;;5.47;;
53799;SDS011;39708;53.210;6.948;2022-12-18T03:54:31;15.25;;;6.78;;
53799;SDS011;39708;53.210;6.948;2022-12-18T03:57:01;9.70;;;6.10;;
53799;SDS011;39708;53.210;6.948;2022-12-18T03:59:38;2.28;;;2.17;;
53799;SDS011;39708;53.210;6.948;2022-12-18T04:02:05;11.40;;;6.22;;
53799;SDS011;39708;53.210;6.948;2022-12-18T04:04:33;6.82;;;4.13;;
53799;SDS011;39708;53.210;6.948;2022-12-18T04:07:00;7.53;;;6.63;;
53799;SDS011;39708;53.210;6.948;2022-12-18T04:09:27;5.10;;;3.00;;
53799;SDS011;39708;53.210;6.948;2022-12-18T04:11:55;6.50;;;5.25;;
53799;SDS011;39708;53.210;6.948;2022-12-18T04:14:20;2.92;;;2.75;;
53799;SDS011;39708;53.210;6.948;2022-12-18T04:16:46;6.63;;;4.07;;
53799;SDS011;39708;53.210;6.948;2022-12-18T04:19:12;12.13;;;4.93;;
53799;SDS011;39708;53.210;6.948;2022-12-18T04:21:37;4.63;;;4.13;;
53799;SDS011;39708;53.210;6.948;2022-12-18T04:24:03;3.17;;;2.88;;
53799;SDS011;39708;53.210;6.948;2022-12-18T04:26:29;3.85;;;3.58;;
53799;SDS011;39708;53.210;6.948;2022-12-18T04:28:55;8.07;;;4.55;;
53799;SDS011;39708;53.210;6.948;2022-12-18T04:31:21;6.32;;;2.97;;
53799;SDS011;39708;53.210;6.948;2022-12-18T04:33:47;4.18;;;3.60;;
53799;SDS011;39708;53.210;6.948;2022-12-18T04:36:12;8.20;;;2.58;;
53799;SDS011;39708;53.210;6.948;2022-12-18T04:38:38;1.10;;;1.08;;
53799;SDS011;39708;53.210;6.948;2022-12-18T04:41:03;5.55;;;3.22;;
53799;SDS011;39708;53.210;6.948;2022-12-18T04:43:29;2.75;;;1.55;;
53799;SDS011;39708;53.210;6.948;2022-12-18T04:46:01;1.63;;;1.35;;
53799;SDS011;39708;53.210;6.948;2022-12-18T04:48:30;1.05;;;0.50;;
53799;SDS011;39708;53.210;6.948;2022-12-18T04:50:56;4.47;;;2.10;;
53799;SDS011;39708;53.210;6.948;2022-12-18T04:53:21;1.60;;;1.48;;
53799;SDS011;39708;53.210;6.948;2022-12-18T04:55:47;2.35;;;1.80;;
53799;SDS011;39708;53.210;6.948;2022-12-18T04:58:12;3.42;;;3.13;;
53799;SDS011;39708;53.210;6.948;2022-12-18T05:00:38;0.63;;;0.63;;
53799;SDS011;39708;53.210;6.948;2022-12-18T05:03:04;3.40;;;1.67;;
53799;SDS011;39708;53.210;6.948;2022-12-18T05:05:30;1.77;;;1.67;;
53799;SDS011;39708;53.210;6.948;2022-12-18T05:07:56;2.83;;;2.25;;
53799;SDS011;39708;53.210;6.948;2022-12-18T05:10:21;3.17;;;2.95;;
53799;SDS011;39708;53.210;6.948;2022-12-18T05:12:47;11.00;;;2.38;;
53799;SDS011;39708;53.210;6.948;2022-12-18T05:15:28;1.88;;;1.45;;
53799;SDS011;39708;53.210;6.948;2022-12-18T05:17:57;2.83;;;2.58;;
53799;SDS011;39708;53.210;6.948;2022-12-18T05:20:24;5.32;;;1.63;;
53799;SDS011;39708;53.210;6.948;2022-12-18T05:22:50;2.78;;;2.00;;
53799;SDS011;39708;53.210;6.948;2022-12-18T05:25:16;1.33;;;1.23;;
53799;SDS011;39708;53.210;6.948;2022-12-18T05:27:42;16.13;;;3.20;;
53799;SDS011;39708;53.210;6.948;2022-12-18T05:30:08;4.20;;;2.45;;
53799;SDS011;39708;53.210;6.948;2022-12-18T05:32:34;5.53;;;2.75;;
53799;SDS011;39708;53.210;6.948;2022-12-18T05:35:00;1.52;;;1.42;;
53799;SDS011;39708;53.210;6.948;2022-12-18T05:37:26;3.90;;;2.42;;
53799;SDS011;39708;53.210;6.948;2022-12-18T05:39:51;1.42;;;1.33;;
53799;SDS011;39708;53.210;6.948;2022-12-18T05:42:17;1.60;;;1.50;;
53799;SDS011;39708;53.210;6.948;2022-12-18T05:44:43;3.42;;;2.08;;
53799;SDS011;39708;53.210;6.948;2022-12-18T05:47:08;0.68;;;0.68;;
53799;SDS011;39708;53.210;6.948;2022-12-18T05:49:34;7.57;;;4.05;;
53799;SDS011;39708;53.210;6.948;2022-12-18T05:52:00;0.68;;;0.68;;
53799;SDS011;39708;53.210;6.948;2022-12-18T05:54:29;0.65;;;0.65;;
53799;SDS011;39708;53.210;6.948;2022-12-18T05:56:56;0.40;;;0.40;;
53799;SDS011;39708;53.210;6.948;2022-12-18T05:59:22;0.52;;;0.52;;
53799;SDS011;39708;53.210;6.948;2022-12-18T06:01:47;11.20;;;2.28;;
53799;SDS011;39708;53.210;6.948;2022-12-18T06:04:13;2.13;;;1.92;;
53799;SDS011;39708;53.210;6.948;2022-12-18T06:06:39;3.88;;;2.33;;
53799;SDS011;39708;53.210;6.948;2022-12-18T06:09:05;2.63;;;1.85;;
53799;SDS011;39708;53.210;6.948;2022-12-18T06:11:33;10.02;;;1.48;;
53799;SDS011;39708;53.210;6.948;2022-12-18T06:14:00;2.83;;;2.63;;
53799;SDS011;39708;53.210;6.948;2022-12-18T06:16:27;3.03;;;2.55;;
53799;SDS011;39708;53.210;6.948;2022-12-18T06:18:56;1.75;;;1.48;;
53799;SDS011;39708;53.210;6.948;2022-12-18T06:21:22;2.50;;;2.13;;
53799;SDS011;39708;53.210;6.948;2022-12-18T06:23:47;1.17;;;0.95;;
53799;SDS011;39708;53.210;6.948;2022-12-18T06:26:13;2.92;;;2.42;;
53799;SDS011;39708;53.210;6.948;2022-12-18T06:28:39;1.85;;;1.75;;
53799;SDS011;39708;53.210;6.948;2022-12-18T06:31:05;4.10;;;3.13;;
53799;SDS011;39708;53.210;6.948;2022-12-18T06:33:31;2.28;;;1.40;;
53799;SDS011;39708;53.210;6.948;2022-12-18T06:36:08;3.33;;;3.03;;
53799;SDS011;39708;53.210;6.948;2022-12-18T06:38:36;8.85;;;3.90;;
53799;SDS011;39708;53.210;6.948;2022-12-18T06:41:21;0.30;;;0.30;;
53799;SDS011;39708;53.210;6.948;2022-12-18T06:43:46;1.17;;;0.93;;
53799;SDS011;39708;53.210;6.948;2022-12-18T06:46:12;4.60;;;2.20;;
53799;SDS011;39708;53.210;6.948;2022-12-18T06:48:38;1.13;;;1.10;;
53799;SDS011;39708;53.210;6.948;2022-12-18T06:51:04;2.53;;;1.65;;
53799;SDS011;39708;53.210;6.948;2022-12-18T06:53:31;7.28;;;1.90;;
53799;SDS011;39708;53.210;6.948;2022-12-18T06:56:04;4.50;;;2.03;;
53799;SDS011;39708;53.210;6.948;2022-12-18T06:58:31;5.47;;;1.48;;
53799;SDS011;39708;53.210;6.948;2022-12-18T07:01:01;2.33;;;2.22;;
53799;SDS011;39708;53.210;6.948;2022-12-18T07:03:28;0.57;;;0.57;;
53799;SDS011;39708;53.210;6.948;2022-12-18T07:05:53;1.88;;;1.65;;
53799;SDS011;39708;53.210;6.948;2022-12-18T07:08:19;3.05;;;2.38;;
53799;SDS011;39708;53.210;6.948;2022-12-18T07:10:45;2.95;;;0.98;;
53799;SDS011;39708;53.210;6.948;2022-12-18T07:13:10;0.73;;;0.70;;
53799;SDS011;39708;53.210;6.948;2022-12-18T07:15:36;3.50;;;0.63;;
53799;SDS011;39708;53.210;6.948;2022-12-18T07:18:02;3.58;;;1.50;;
53799;SDS011;39708;53.210;6.948;2022-12-18T07:20:27;3.78;;;1.35;;
53799;SDS011;39708;53.210;6.948;2022-12-18T07:22:53;1.02;;;0.85;;
53799;SDS011;39708;53.210;6.948;2022-12-18T07:25:19;1.60;;;1.50;;
53799;SDS011;39708;53.210;6.948;2022-12-18T07:27:44;6.97;;;2.33;;
53799;SDS011;39708;53.210;6.948;2022-12-18T07:30:10;2.10;;;1.27;;
53799;SDS011;39708;53.210;6.948;2022-12-18T07:32:36;5.78;;;1.98;;
53799;SDS011;39708;53.210;6.948;2022-12-18T07:35:01;1.50;;;1.40;;
53799;SDS011;39708;53.210;6.948;2022-12-18T07:37:27;1.45;;;1.35;;
53799;SDS011;39708;53.210;6.948;2022-12-18T07:39:53;1.20;;;0.73;;
53799;SDS011;39708;53.210;6.948;2022-12-18T07:42:18;5.95;;;2.08;;
53799;SDS011;39708;53.210;6.948;2022-12-18T07:44:57;4.72;;;1.70;;
53799;SDS011;39708;53.210;6.948;2022-12-18T07:47:27;0.30;;;0.28;;
53799;SDS011;39708;53.210;6.948;2022-12-18T07:49:53;4.68;;;1.70;;
53799;SDS011;39708;53.210;6.948;2022-12-18T07:52:19;0.38;;;0.38;;
53799;SDS011;39708;53.210;6.948;2022-12-18T07:54:45;0.60;;;0.60;;
53799;SDS011;39708;53.210;6.948;2022-12-18T07:57:15;0.65;;;0.60;;
53799;SDS011;39708;53.210;6.948;2022-12-18T07:59:42;1.70;;;1.05;;
53799;SDS011;39708;53.210;6.948;2022-12-18T08:02:07;2.10;;;1.85;;
53799;SDS011;39708;53.210;6.948;2022-12-18T08:04:33;3.63;;;0.95;;
53799;SDS011;39708;53.210;6.948;2022-12-18T08:06:59;2.55;;;0.93;;
53799;SDS011;39708;53.210;6.948;2022-12-18T08:09:24;6.75;;;1.23;;
53799;SDS011;39708;53.210;6.948;2022-12-18T08:11:50;2.13;;;0.80;;
53799;SDS011;39708;53.210;6.948;2022-12-18T08:14:15;2.13;;;0.57;;
53799;SDS011;39708;53.210;6.948;2022-12-18T08:16:41;0.60;;;0.60;;
53799;SDS011;39708;53.210;6.948;2022-12-18T08:19:07;1.75;;;0.98;;
53799;SDS011;39708;53.210;6.948;2022-12-18T08:21:35;1.23;;;1.17;;
53799;SDS011;39708;53.210;6.948;2022-12-18T08:24:01;1.90;;;1.45;;
53799;SDS011;39708;53.210;6.948;2022-12-18T08:26:28;5.38;;;2.45;;
53799;SDS011;39708;53.210;6.948;2022-12-18T08:28:55;1.92;;;0.68;;
53799;SDS011;39708;53.210;6.948;2022-12-18T08:31:22;6.05;;;3.05;;
53799;SDS011;39708;53.210;6.948;2022-12-18T08:33:50;2.83;;;2.05;;
53799;SDS011;39708;53.210;6.948;2022-12-18T08:36:17;1.35;;;1.25;;
53799;SDS011;39708;53.210;6.948;2022-12-18T08:38:44;1.95;;;1.20;;
53799;SDS011;39708;53.210;6.948;2022-12-18T08:41:11;4.82;;;3.08;;
53799;SDS011;39708;53.210;6.948;2022-12-18T08:43:38;10.13;;;1.42;;
53799;SDS011;39708;53.210;6.948;2022-12-18T08:46:23;4.15;;;2.47;;
53799;SDS011;39708;53.210;6.948;2022-12-18T08:48:51;4.40;;;1.73;;
53799;SDS011;39708;53.210;6.948;2022-12-18T08:51:18;5.75;;;1.63;;
53799;SDS011;39708;53.210;6.948;2022-12-18T08:53:44;6.13;;;3.28;;
53799;SDS011;39708;53.210;6.948;2022-12-18T08:56:11;4.93;;;3.20;;
53799;SDS011;39708;53.210;6.948;2022-12-18T08:58:37;7.50;;;2.97;;
53799;SDS011;39708;53.210;6.948;2022-12-18T09:01:04;3.70;;;1.98;;
53799;SDS011;39708;53.210;6.948;2022-12-18T09:03:31;4.05;;;1.35;;
53799;SDS011;39708;53.210;6.948;2022-12-18T09:05:58;3.08;;;2.08;;
53799;SDS011;39708;53.210;6.948;2022-12-18T09:08:24;2.78;;;2.42;;
53799;SDS011;39708;53.210;6.948;2022-12-18T09:10:50;2.80;;;2.60;;
53799;SDS011;39708;53.210;6.948;2022-12-18T09:13:16;3.67;;;3.28;;
53799;SDS011;39708;53.210;6.948;2022-12-18T09:15:43;2.03;;;1.90;;
53799;SDS011;39708;53.210;6.948;2022-12-18T09:18:10;1.70;;;1.58;;
53799;SDS011;39708;53.210;6.948;2022-12-18T09:20:37;1.77;;;1.67;;
53799;SDS011;39708;53.210;6.948;2022-12-18T09:23:03;2.45;;;0.95;;
53799;SDS011;39708;53.210;6.948;2022-12-18T09:25:30;3.00;;;1.40;;
53799;SDS011;39708;53.210;6.948;2022-12-18T09:28:01;5.93;;;1.90;;
53799;SDS011;39708;53.210;6.948;2022-12-18T09:30:28;3.00;;;2.13;;
53799;SDS011;39708;53.210;6.948;2022-12-18T09:32:53;2.60;;;1.52;;
53799;SDS011;39708;53.210;6.948;2022-12-18T09:35:19;1.65;;;1.08;;
53799;SDS011;39708;53.210;6.948;2022-12-18T09:37:45;1.23;;;1.00;;
53799;SDS011;39708;53.210;6.948;2022-12-18T09:40:14;4.78;;;1.00;;
53799;SDS011;39708;53.210;6.948;2022-12-18T09:42:44;2.85;;;1.63;;
53799;SDS011;39708;53.210;6.948;2022-12-18T09:45:17;4.10;;;1.15;;
53799;SDS011;39708;53.210;6.948;2022-12-18T09:47:43;2.22;;;1.52;;
53799;SDS011;39708;53.210;6.948;2022-12-18T09:52:53;1.45;;;1.15;;
53799;SDS011;39708;53.210;6.948;2022-12-18T09:55:27;1.98;;;1.88;;
53799;SDS011;39708;53.210;6.948;2022-12-18T09:57:58;2.45;;;1.52;;
53799;SDS011;39708;53.210;6.948;2022-12-18T10:00:32;2.05;;;1.95;;
53799;SDS011;39708;53.210;6.948;2022-12-18T10:03:03;2.03;;;1.17;;
53799;SDS011;39708;53.210;6.948;2022-12-18T10:08:29;2.72;;;1.95;;
53799;SDS011;39708;53.210;6.948;2022-12-18T10:11:16;4.63;;;2.20;;
53799;SDS011;39708;53.210;6.948;2022-12-18T10:13:53;0.77;;;0.77;;
53799;SDS011;39708;53.210;6.948;2022-12-18T10:27:44;6.28;;;1.38;;
53799;SDS011;39708;53.210;6.948;2022-12-18T10:30:18;2.03;;;1.92;;
53799;SDS011;39708;53.210;6.948;2022-12-18T10:32:45;1.67;;;0.95;;
53799;SDS011;39708;53.210;6.948;2022-12-18T10:35:15;2.20;;;1.60;;
53799;SDS011;39708;53.210;6.948;2022-12-18T10:40:50;0.77;;;0.70;;
53799;SDS011;39708;53.210;6.948;2022-12-18T10:43:19;0.73;;;0.73;;
53799;SDS011;39708;53.210;6.948;2022-12-18T10:48:56;1.13;;;0.90;;
53799;SDS011;39708;53.210;6.948;2022-12-18T10:51:24;2.35;;;0.80;;
53799;SDS011;39708;53.210;6.948;2022-12-18T10:53:54;1.75;;;1.67;;
53799;SDS011;39708;53.210;6.948;2022-12-18T10:56:23;1.13;;;1.13;;
53799;SDS011;39708;53.210;6.948;2022-12-18T10:59:01;2.00;;;1.90;;
53799;SDS011;39708;53.210;6.948;2022-12-18T11:01:27;0.98;;;0.70;;
53799;SDS011;39708;53.210;6.948;2022-12-18T11:04:00;0.40;;;0.40;;
53799;SDS011;39708;53.210;6.948;2022-12-18T11:06:28;2.67;;;0.65;;
53799;SDS011;39708;53.210;6.948;2022-12-18T11:11:27;1.10;;;0.43;;
53799;SDS011;39708;53.210;6.948;2022-12-18T11:14:01;0.43;;;0.43;;
53799;SDS011;39708;53.210;6.948;2022-12-18T11:16:42;1.35;;;0.65;;
53799;SDS011;39708;53.210;6.948;2022-12-18T11:19:16;2.10;;;2.00;;
53799;SDS011;39708;53.210;6.948;2022-12-18T11:22:00;0.20;;;0.20;;
53799;SDS011;39708;53.210;6.948;2022-12-18T11:24:33;2.70;;;0.43;;
53799;SDS011;39708;53.210;6.948;2022-12-18T11:27:01;4.03;;;2.83;;
53799;SDS011;39708;53.210;6.948;2022-12-18T11:29:38;3.97;;;0.57;;
53799;SDS011;39708;53.210;6.948;2022-12-18T11:35:13;1.25;;;0.22;;
53799;SDS011;39708;53.210;6.948;2022-12-18T11:38:02;0.40;;;0.35;;
53799;SDS011;39708;53.210;6.948;2022-12-18T11:40:36;0.80;;;0.77;;
53799;SDS011;39708;53.210;6.948;2022-12-18T11:46:19;3.72;;;0.98;;
53799;SDS011;39708;53.210;6.948;2022-12-18T11:51:38;1.95;;;1.15;;
53799;SDS011;39708;53.210;6.948;2022-12-18T11:54:14;0.43;;;0.43;;
53799;SDS011;39708;53.210;6.948;2022-12-18T11:56:46;0.65;;;0.20;;
53799;SDS011;39708;53.210;6.948;2022-12-18T11:59:24;2.17;;;1.38;;
53799;SDS011;39708;53.210;6.948;2022-12-18T12:04:50;0.80;;;0.52;;
53799;SDS011;39708;53.210;6.948;2022-12-18T12:07:42;0.40;;;0.40;;
53799;SDS011;39708;53.210;6.948;2022-12-18T12:18:42;0.85;;;0.75;;
53799;SDS011;39708;53.210;6.948;2022-12-18T12:26:52;1.20;;;0.50;;
53799;SDS011;39708;53.210;6.948;2022-12-18T12:38:10;1.65;;;0.38;;
53799;SDS011;39708;53.210;6.948;2022-12-18T12:40:47;0.25;;;0.25;;
53799;SDS011;39708;53.210;6.948;2022-12-18T12:48:41;0.17;;;0.17;;
53799;SDS011;39708;53.210;6.948;2022-12-18T12:51:17;3.90;;;1.48;;
53799;SDS011;39708;53.210;6.948;2022-12-18T12:53:46;3.47;;;0.98;;
53799;SDS011;39708;53.210;6.948;2022-12-18T12:56:14;0.50;;;0.50;;
53799;SDS011;39708;53.210;6.948;2022-12-18T12:58:45;0.10;;;0.10;;
53799;SDS011;39708;53.210;6.948;2022-12-18T13:06:53;0.20;;;0.17;;
53799;SDS011;39708;53.210;6.948;2022-12-18T13:09:25;0.30;;;0.30;;
53799;SDS011;39708;53.210;6.948;2022-12-18T13:11:57;1.40;;;0.55;;
53799;SDS011;39708;53.210;6.948;2022-12-18T13:14:47;0.10;;;0.10;;
53799;SDS011;39708;53.210;6.948;2022-12-18T13:17:16;0.95;;;0.82;;
53799;SDS011;39708;53.210;6.948;2022-12-18T13:19:48;0.32;;;0.32;;
53799;SDS011;39708;53.210;6.948;2022-12-18T13:22:22;1.35;;;1.35;;
53799;SDS011;39708;53.210;6.948;2022-12-18T13:24:53;0.20;;;0.20;;
53799;SDS011;39708;53.210;6.948;2022-12-18T13:33:45;0.32;;;0.32;;
53799;SDS011;39708;53.210;6.948;2022-12-18T13:45:49;0.95;;;0.65;;
53799;SDS011;39708;53.210;6.948;2022-12-18T13:48:36;4.20;;;2.67;;
53799;SDS011;39708;53.210;6.948;2022-12-18T13:51:04;1.58;;;1.48;;
53799;SDS011;39708;53.210;6.948;2022-12-18T13:54:17;2.88;;;2.00;;
53799;SDS011;39708;53.210;6.948;2022-12-18T13:56:29;0.75;;;0.60;;
53799;SDS011;39708;53.210;6.948;2022-12-18T13:59:13;1.05;;;1.05;;
53799;SDS011;39708;53.210;6.948;2022-12-18T14:01:42;3.80;;;1.25;;
53799;SDS011;39708;53.210;6.948;2022-12-18T14:04:32;1.02;;;0.63;;
53799;SDS011;39708;53.210;6.948;2022-12-18T14:07:06;3.38;;;2.25;;
53799;SDS011;39708;53.210;6.948;2022-12-18T14:09:36;1.25;;;0.52;;
53799;SDS011;39708;53.210;6.948;2022-12-18T14:12:18;0.77;;;0.63;;
53799;SDS011;39708;53.210;6.948;2022-12-18T14:15:24;2.17;;;0.50;;
53799;SDS011;39708;53.210;6.948;2022-12-18T14:21:27;1.88;;;1.77;;
53799;SDS011;39708;53.210;6.948;2022-12-18T14:26:41;0.68;;;0.65;;
53799;SDS011;39708;53.210;6.948;2022-12-18T14:29:21;1.02;;;0.88;;
53799;SDS011;39708;53.210;6.948;2022-12-18T14:34:46;0.80;;;0.80;;
53799;SDS011;39708;53.210;6.948;2022-12-18T14:37:14;1.45;;;1.38;;
53799;SDS011;39708;53.210;6.948;2022-12-18T14:39:52;1.27;;;0.47;;
53799;SDS011;39708;53.210;6.948;2022-12-18T14:42:19;4.15;;;1.80;;
53799;SDS011;39708;53.210;6.948;2022-12-18T14:44:45;1.40;;;1.08;;
53799;SDS011;39708;53.210;6.948;2022-12-18T14:47:14;0.40;;;0.40;;
53799;SDS011;39708;53.210;6.948;2022-12-18T14:49:41;2.00;;;0.90;;
53799;SDS011;39708;53.210;6.948;2022-12-18T14:52:28;1.58;;;1.48;;
53799;SDS011;39708;53.210;6.948;2022-12-18T14:54:56;3.83;;;2.97;;
53799;SDS011;39708;53.210;6.948;2022-12-18T14:57:22;0.70;;;0.70;;
53799;SDS011;39708;53.210;6.948;2022-12-18T15:00:11;1.55;;;0.75;;
53799;SDS011;39708;53.210;6.948;2022-12-18T15:02:41;1.65;;;1.25;;
53799;SDS011;39708;53.210;6.948;2022-12-18T15:05:17;1.08;;;0.50;;
53799;SDS011;39708;53.210;6.948;2022-12-18T15:07:57;0.43;;;0.43;;
53799;SDS011;39708;53.210;6.948;2022-12-18T15:10:28;1.40;;;1.15;;
53799;SDS011;39708;53.210;6.948;2022-12-18T15:18:04;3.42;;;1.23;;
53799;SDS011;39708;53.210;6.948;2022-12-18T15:23:29;0.38;;;0.20;;
53799;SDS011;39708;53.210;6.948;2022-12-18T15:26:11;1.48;;;0.75;;
53799;SDS011;39708;53.210;6.948;2022-12-18T15:28:55;2.13;;;1.20;;
53799;SDS011;39708;53.210;6.948;2022-12-18T15:31:30;0.50;;;0.50;;
53799;SDS011;39708;53.210;6.948;2022-12-18T15:36:24;1.55;;;0.70;;
53799;SDS011;39708;53.210;6.948;2022-12-18T15:38:50;0.70;;;0.60;;
53799;SDS011;39708;53.210;6.948;2022-12-18T15:41:18;1.48;;;1.08;;
53799;SDS011;39708;53.210;6.948;2022-12-18T15:43:46;1.33;;;0.85;;
53799;SDS011;39708;53.210;6.948;2022-12-18T15:46:14;0.40;;;0.40;;
53799;SDS011;39708;53.210;6.948;2022-12-18T15:48:46;5.47;;;1.35;;
53799;SDS011;39708;53.210;6.948;2022-12-18T15:51:20;0.70;;;0.70;;
53799;SDS011;39708;53.210;6.948;2022-12-18T15:53:50;1.35;;;1.00;;
53799;SDS011;39708;53.210;6.948;2022-12-18T15:56:18;0.75;;;0.50;;
53799;SDS011;39708;53.210;6.948;2022-12-18T15:59:04;1.50;;;1.15;;
53799;SDS011;39708;53.210;6.948;2022-12-18T16:01:39;1.33;;;1.23;;
53799;SDS011;39708;53.210;6.948;2022-12-18T16:04:06;0.82;;;0.57;;
53799;SDS011;39708;53.210;6.948;2022-12-18T16:06:34;3.03;;;0.40;;
53799;SDS011;39708;53.210;6.948;2022-12-18T16:08:59;0.20;;;0.20;;
53799;SDS011;39708;53.210;6.948;2022-12-18T16:11:26;0.40;;;0.40;;
53799;SDS011;39708;53.210;6.948;2022-12-18T16:16:44;1.27;;;1.13;;
53799;SDS011;39708;53.210;6.948;2022-12-18T16:19:11;1.65;;;0.75;;
53799;SDS011;39708;53.210;6.948;2022-12-18T16:21:37;0.80;;;0.57;;
53799;SDS011;39708;53.210;6.948;2022-12-18T16:24:03;0.22;;;0.22;;
53799;SDS011;39708;53.210;6.948;2022-12-18T16:26:32;2.53;;;0.98;;
53799;SDS011;39708;53.210;6.948;2022-12-18T16:28:57;0.68;;;0.68;;
53799;SDS011;39708;53.210;6.948;2022-12-18T16:31:23;0.52;;;0.52;;
53799;SDS011;39708;53.210;6.948;2022-12-18T16:33:48;0.45;;;0.30;;
53799;SDS011;39708;53.210;6.948;2022-12-18T16:36:14;1.38;;;1.20;;
53799;SDS011;39708;53.210;6.948;2022-12-18T16:38:40;2.20;;;1.25;;
53799;SDS011;39708;53.210;6.948;2022-12-18T16:41:23;1.58;;;1.23;;
53799;SDS011;39708;53.210;6.948;2022-12-18T16:43:58;0.60;;;0.60;;
53799;SDS011;39708;53.210;6.948;2022-12-18T16:46:25;0.25;;;0.25;;
53799;SDS011;39708;53.210;6.948;2022-12-18T16:48:50;3.70;;;1.17;;
53799;SDS011;39708;53.210;6.948;2022-12-18T16:51:16;0.17;;;0.17;;
53799;SDS011;39708;53.210;6.948;2022-12-18T16:53:42;3.00;;;1.02;;
53799;SDS011;39708;53.210;6.948;2022-12-18T16:56:07;4.22;;;1.13;;
53799;SDS011;39708;53.210;6.948;2022-12-18T16:58:33;0.00;;;0.00;;
53799;SDS011;39708;53.210;6.948;2022-12-18T17:00:59;2.80;;;1.73;;
53799;SDS011;39708;53.210;6.948;2022-12-18T17:03:25;1.05;;;1.02;;
53799;SDS011;39708;53.210;6.948;2022-12-18T17:05:51;1.85;;;0.98;;
53799;SDS011;39708;53.210;6.948;2022-12-18T17:08:16;1.55;;;0.75;;
53799;SDS011;39708;53.210;6.948;2022-12-18T17:10:42;2.25;;;1.33;;
53799;SDS011;39708;53.210;6.948;2022-12-18T17:13:07;0.15;;;0.15;;
53799;SDS011;39708;53.210;6.948;2022-12-18T17:15:34;7.80;;;1.52;;
53799;SDS011;39708;53.210;6.948;2022-12-18T17:18:00;2.67;;;0.88;;
53799;SDS011;39708;53.210;6.948;2022-12-18T17:20:26;2.53;;;2.33;;
53799;SDS011;39708;53.210;6.948;2022-12-18T17:22:51;0.10;;;0.10;;
53799;SDS011;39708;53.210;6.948;2022-12-18T17:25:17;0.75;;;0.65;;
53799;SDS011;39708;53.210;6.948;2022-12-18T17:27:43;0.05;;;0.05;;